Time;durP1;ratioP1;P1;durP2;ratioP2;P2;SDS_P1;SDS_P2;PMS_P1;PMS_P2;Temp;Humidity;BMP_temperature;BMP_pressure;BME280_temperature;BME280_humidity;BME280_pressure;Samples;Min_cycle;Max_cycle;Signal;HPM_P1;HPM_P2
2023/04/04 00:00:15;;;;;;;19.13;9.30;;;3.00;99.90;;;;;;5054635;28;20120;-62
2023/04/04 00:02:42;;;;;;;21.45;10.80;;;3.00;99.90;;;;;;5054825;28;20116;-61
2023/04/04 00:05:09;;;;;;;19.33;9.68;;;3.00;99.90;;;;;;5039714;28;20041;-59
2023/04/04 00:07:36;;;;;;;30.90;11.80;;;2.90;99.90;;;;;;5035273;28;20104;-62
2023/04/04 00:10:02;;;;;;;20.95;9.15;;;2.90;99.90;;;;;;5035172;28;20099;-61
2023/04/04 00:12:29;;;;;;;21.65;8.68;;;2.80;99.90;;;;;;5038451;28;20037;-63
2023/04/04 00:14:56;;;;;;;14.50;8.00;;;2.90;99.90;;;;;;5053712;28;20116;-61
2023/04/04 00:17:23;;;;;;;16.05;7.95;;;2.80;99.90;;;;;;5054094;28;20048;-61
2023/04/04 00:19:49;;;;;;;16.67;7.45;;;2.80;99.90;;;;;;5054313;28;20037;-62
2023/04/04 00:22:17;;;;;;;15.63;7.97;;;2.90;99.90;;;;;;5040999;28;20554;-60
2023/04/04 00:24:44;;;;;;;13.38;7.22;;;2.80;99.90;;;;;;5034719;28;20045;-62
2023/04/04 00:27:11;;;;;;;12.88;7.63;;;2.80;99.90;;;;;;5035144;28;20045;-60
2023/04/04 00:29:38;;;;;;;16.33;8.52;;;2.70;99.90;;;;;;5033663;28;20046;-61
2023/04/04 03:07:38;;;;;;;19.00;8.98;;;1.30;99.90;;;;;;5042570;28;20123;-62
2023/04/04 03:10:05;;;;;;;16.85;9.27;;;1.20;99.90;;;;;;5054375;28;20091;-61
2023/04/04 03:12:32;;;;;;;17.13;9.40;;;1.20;99.90;;;;;;5055372;28;20037;-62
2023/04/04 03:14:59;;;;;;;26.40;9.95;;;1.20;99.90;;;;;;5055271;28;20041;-61
2023/04/04 03:17:25;;;;;;;23.55;10.57;;;1.10;99.90;;;;;;5053198;28;20037;-61
2023/04/04 03:19:52;;;;;;;21.27;10.63;;;1.20;99.90;;;;;;5053885;28;20037;-61
2023/04/04 03:22:19;;;;;;;24.92;11.02;;;1.10;99.90;;;;;;5054282;28;20091;-62
2023/04/04 03:24:45;;;;;;;24.00;10.95;;;1.10;99.90;;;;;;5054797;28;20369;-61
2023/04/04 03:27:12;;;;;;;18.98;10.07;;;1.20;99.90;;;;;;5055219;28;20492;-61
2023/04/04 03:30:04;;;;;;;18.65;9.18;;;1.20;99.90;;;;;;5055419;28;20574;-61
2023/04/04 03:32:32;;;;;;;17.38;7.63;;;1.10;99.90;;;;;;5053872;28;20443;-62
2023/04/04 03:34:59;;;;;;;13.30;7.22;;;1.10;99.90;;;;;;5053736;28;20041;-63
2023/04/04 03:37:26;;;;;;;12.68;6.60;;;1.20;99.90;;;;;;5053784;28;20041;-62
2023/04/04 03:39:53;;;;;;;15.75;6.93;;;1.10;99.90;;;;;;5052412;28;20047;-62
2023/04/04 03:42:20;;;;;;;13.23;6.95;;;1.10;99.90;;;;;;5053877;28;20041;-62
2023/04/04 03:44:47;;;;;;;12.60;6.45;;;1.10;99.90;;;;;;5053682;28;20039;-60
2023/04/04 03:47:25;;;;;;;12.52;6.47;;;1.00;99.90;;;;;;5053984;28;20136;-60
2023/04/04 03:49:54;;;;;;;12.13;6.07;;;1.00;99.90;;;;;;5055067;28;20037;-61
2023/04/04 03:52:22;;;;;;;12.43;6.93;;;1.00;99.90;;;;;;5055018;28;20053;-62
2023/04/04 03:54:51;;;;;;;13.88;6.93;;;0.90;99.90;;;;;;5054789;28;20049;-63
2023/04/04 03:57:18;;;;;;;12.48;7.28;;;0.90;99.90;;;;;;5053481;28;20403;-62
2023/04/04 03:59:45;;;;;;;19.75;9.10;;;0.90;99.90;;;;;;5054787;28;20049;-61
2023/04/04 04:02:12;;;;;;;15.30;7.38;;;0.90;99.90;;;;;;5053431;28;20124;-60
2023/04/04 04:04:39;;;;;;;11.95;6.65;;;0.80;99.90;;;;;;5054213;28;20575;-62
2023/04/04 04:07:06;;;;;;;11.40;6.65;;;0.80;99.90;;;;;;5053300;28;20556;-59
2023/04/04 04:09:34;;;;;;;12.77;7.10;;;0.70;99.90;;;;;;5040748;28;20065;-61
2023/04/04 04:12:01;;;;;;;15.30;7.57;;;0.70;99.90;;;;;;5033677;28;20139;-62
2023/04/04 05:07:56;;;;;;;17.77;8.65;;;0.40;99.90;;;;;;5037225;28;20092;-59
2023/04/04 05:10:23;;;;;;;24.27;11.40;;;0.40;99.90;;;;;;5034042;28;20096;-61
2023/04/04 05:12:50;;;;;;;20.35;11.30;;;0.40;99.90;;;;;;5051488;28;20040;-61
2023/04/04 05:15:21;;;;;;;28.83;12.13;;;0.40;99.90;;;;;;5052055;28;20110;-62
2023/04/04 05:17:50;;;;;;;23.20;11.23;;;0.30;99.90;;;;;;5051983;28;20053;-62
2023/04/04 05:20:17;;;;;;;24.02;13.00;;;0.40;99.90;;;;;;5053255;28;20507;-61
2023/04/04 05:22:47;;;;;;;28.27;13.15;;;0.30;99.90;;;;;;5051499;28;20511;-62
2023/04/04 05:25:23;;;;;;;21.70;10.40;;;0.30;99.90;;;;;;5051892;28;20048;-62
2023/04/04 05:27:50;;;;;;;18.38;9.35;;;0.30;99.90;;;;;;5051554;28;20045;-61
2023/04/04 05:30:19;;;;;;;19.02;8.98;;;0.30;99.90;;;;;;5051963;28;20068;-62
2023/04/04 05:32:56;;;;;;;14.68;8.30;;;0.30;99.90;;;;;;5052069;28;20565;-63
2023/04/04 05:41:51;;;;;;;13.35;8.95;;;0.20;99.90;;;;;;5041529;28;20361;-63
2023/04/04 07:21:27;;;;;;;21.85;10.52;;;1.40;99.90;;;;;;4907364;29;20402;-63
2023/04/04 07:24:13;;;;;;;16.30;11.35;;;1.50;99.90;;;;;;4932218;29;20485;-63
2023/04/04 07:26:40;;;;;;;19.25;10.27;;;1.60;99.90;;;;;;4928803;29;20040;-61
2023/04/04 07:29:06;;;;;;;20.88;11.45;;;1.70;99.90;;;;;;4931255;29;20048;-63
2023/04/04 07:31:33;;;;;;;17.23;10.45;;;1.80;99.90;;;;;;4931153;29;20039;-63
2023/04/04 07:34:00;;;;;;;15.23;10.25;;;1.80;99.90;;;;;;4937446;29;20486;-63
2023/04/04 07:36:28;;;;;;;24.50;11.10;;;1.90;99.90;;;;;;4937753;29;20047;-63
2023/04/04 07:38:54;;;;;;;17.70;10.10;;;2.00;99.90;;;;;;4937066;29;20142;-63
2023/04/04 07:41:21;;;;;;;16.17;9.27;;;2.00;99.90;;;;;;4936452;29;20047;-64
2023/04/04 07:43:48;;;;;;;17.40;9.93;;;2.10;99.90;;;;;;4936115;29;20071;-62
2023/04/04 07:46:15;;;;;;;22.85;9.25;;;2.20;99.90;;;;;;4919711;29;20497;-62
2023/04/04 07:48:42;;;;;;;14.30;9.77;;;2.30;99.90;;;;;;4936356;29;20051;-63
2023/04/04 07:51:09;;;;;;;15.15;10.18;;;2.30;99.90;;;;;;4936207;29;20071;-63
2023/04/04 07:53:36;;;;;;;15.50;9.82;;;2.40;99.90;;;;;;4936623;29;20130;-62
2023/04/04 07:56:05;;;;;;;14.80;9.32;;;2.50;99.90;;;;;;4936606;29;20136;-60
2023/04/04 07:58:32;;;;;;;17.50;9.43;;;2.60;99.90;;;;;;4937583;29;20052;-64
2023/04/04 08:00:59;;;;;;;17.13;9.02;;;2.70;99.90;;;;;;4919857;29;20435;-63
2023/04/04 08:03:26;;;;;;;19.15;9.77;;;2.80;99.90;;;;;;4919268;29;20134;-60
2023/04/04 08:05:53;;;;;;;15.38;8.68;;;2.80;99.90;;;;;;4937528;29;20044;-63
2023/04/04 08:08:19;;;;;;;15.60;9.02;;;2.90;99.90;;;;;;4937438;29;20139;-61
2023/04/04 08:10:48;;;;;;;14.48;8.52;;;3.00;99.90;;;;;;4935123;29;20126;-61
2023/04/04 08:13:14;;;;;;;16.35;8.40;;;3.10;99.90;;;;;;4936902;29;20491;-61
2023/04/04 08:15:41;;;;;;;11.88;7.25;;;3.20;99.90;;;;;;4937012;29;20406;-63
2023/04/04 08:18:08;;;;;;;12.15;5.63;;;3.30;99.90;;;;;;4937123;29;20055;-60
2023/04/04 08:20:35;;;;;;;10.27;5.75;;;3.50;99.90;;;;;;4936469;29;20059;-63
2023/04/04 08:23:02;;;;;;;9.77;5.97;;;3.60;99.90;;;;;;4936801;29;20130;-62
2023/04/04 08:25:29;;;;;;;15.75;6.80;;;3.70;99.90;;;;;;4935410;29;20044;-63
2023/04/04 08:27:56;;;;;;;13.82;6.38;;;3.80;99.90;;;;;;4936887;29;20036;-63
2023/04/04 08:30:22;;;;;;;10.57;6.10;;;3.90;99.90;;;;;;4936569;29;20043;-60
2023/04/04 08:32:49;;;;;;;12.18;6.60;;;4.00;99.90;;;;;;4936616;29;20138;-63
2023/04/04 08:35:16;;;;;;;12.35;6.20;;;4.10;99.90;;;;;;4936771;29;20094;-63
2023/04/04 08:37:43;;;;;;;10.15;5.97;;;4.20;99.90;;;;;;4936589;29;20078;-63
2023/04/04 08:40:10;;;;;;;13.55;6.60;;;4.30;99.90;;;;;;4919869;29;20051;-61
2023/04/04 08:42:38;;;;;;;13.57;6.57;;;4.40;99.90;;;;;;4936077;29;20469;-61
2023/04/04 08:45:05;;;;;;;13.95;6.63;;;4.50;99.90;;;;;;4919830;29;20040;-63
2023/04/04 08:47:32;;;;;;;17.13;7.07;;;4.60;99.90;;;;;;4936292;29;20483;-61
2023/04/04 08:49:58;;;;;;;13.77;6.15;;;4.70;99.90;;;;;;4936114;29;20051;-61
2023/04/04 08:52:26;;;;;;;14.05;6.25;;;4.80;99.90;;;;;;4936091;29;20091;-61
2023/04/04 08:54:52;;;;;;;13.48;6.75;;;4.90;99.90;;;;;;4936304;29;20048;-62
2023/04/04 08:57:19;;;;;;;14.45;7.07;;;5.00;99.90;;;;;;4936078;29;20501;-62
2023/04/04 08:59:46;;;;;;;13.63;6.18;;;5.00;99.90;;;;;;4935928;29;20103;-61
2023/04/04 09:02:13;;;;;;;11.95;6.53;;;5.10;99.90;;;;;;4935891;29;20154;-60
2023/04/04 09:04:40;;;;;;;11.10;6.20;;;5.20;99.90;;;;;;4935988;29;20075;-61
2023/04/04 09:07:08;;;;;;;14.20;6.40;;;5.30;99.90;;;;;;4936220;29;20039;-61
2023/04/04 09:09:36;;;;;;;13.60;5.85;;;5.40;99.90;;;;;;4935936;29;20036;-60
2023/04/04 09:12:03;;;;;;;12.63;6.10;;;5.50;99.90;;;;;;4935905;29;20044;-61
2023/04/04 09:14:30;;;;;;;10.70;5.15;;;5.50;99.90;;;;;;4936085;29;20364;-61
2023/04/04 09:16:57;;;;;;;11.57;5.38;;;5.60;99.90;;;;;;4936061;29;20056;-61
2023/04/04 09:19:24;;;;;;;11.68;5.20;;;5.70;99.90;;;;;;4934950;29;20490;-61
2023/04/04 09:21:52;;;;;;;13.85;5.50;;;5.70;99.90;;;;;;4935824;29;20075;-61
2023/04/04 09:24:19;;;;;;;9.65;5.15;;;5.80;99.90;;;;;;4935660;29;20050;-61
2023/04/04 09:26:46;;;;;;;11.45;5.18;;;5.80;99.90;;;;;;4935710;29;20118;-61
2023/04/04 09:29:13;;;;;;;11.55;5.15;;;5.90;99.90;;;;;;4935774;29;20044;-61
2023/04/04 09:31:40;;;;;;;9.90;5.35;;;6.00;99.90;;;;;;4918575;29;20048;-61
2023/04/04 09:34:07;;;;;;;11.95;5.30;;;6.00;99.90;;;;;;4931835;29;20048;-62
2023/04/04 09:36:33;;;;;;;12.10;5.10;;;6.00;99.90;;;;;;4935537;29;20553;-62
2023/04/04 09:39:00;;;;;;;9.38;5.28;;;6.10;99.90;;;;;;4935146;29;20044;-61
2023/04/04 09:41:27;;;;;;;11.48;5.35;;;6.20;99.90;;;;;;4935246;29;20051;-62
2023/04/04 09:43:54;;;;;;;9.52;5.53;;;6.30;99.90;;;;;;4934679;29;20419;-61
2023/04/04 09:46:22;;;;;;;9.90;5.13;;;6.40;99.90;;;;;;4935541;29;21071;-61
2023/04/04 09:48:52;;;;;;;12.63;5.47;;;6.50;99.90;;;;;;4935368;29;20383;-62
2023/04/04 09:51:19;;;;;;;15.20;5.65;;;6.50;99.90;;;;;;4932476;29;20513;-62
2023/04/04 09:53:46;;;;;;;12.70;5.43;;;6.60;99.90;;;;;;4935480;29;20853;-61
2023/04/04 09:56:12;;;;;;;12.32;5.43;;;6.60;99.90;;;;;;4934847;29;20900;-63
2023/04/04 09:58:39;;;;;;;11.77;5.13;;;6.70;99.90;;;;;;4936128;29;20075;-58
2023/04/04 10:01:22;;;;;;;16.02;8.20;;;6.80;99.90;;;;;;4935051;29;20091;-60
2023/04/04 10:03:48;;;;;;;9.80;5.15;;;6.80;99.90;;;;;;4935679;29;20040;-60
2023/04/04 10:06:15;;;;;;;10.75;4.50;;;6.90;99.90;;;;;;4934725;29;20151;-61
2023/04/04 10:08:42;;;;;;;9.68;4.57;;;7.00;99.90;;;;;;4935574;29;20075;-61
2023/04/04 10:11:09;;;;;;;9.75;4.55;;;7.00;99.90;;;;;;4935501;29;20075;-61
2023/04/04 10:13:43;;;;;;;9.52;4.15;;;7.10;99.90;;;;;;4935196;29;20043;-59
2023/04/04 10:16:10;;;;;;;12.02;4.45;;;7.10;99.90;;;;;;4935494;29;20071;-60
2023/04/04 10:18:38;;;;;;;11.65;4.13;;;7.20;99.90;;;;;;4934311;29;20521;-60
2023/04/04 10:21:05;;;;;;;10.95;4.57;;;7.30;99.90;;;;;;4934691;29;20059;-62
2023/04/04 10:23:35;;;;;;;11.63;4.60;;;7.30;99.90;;;;;;4934048;29;20043;-61
2023/04/04 10:26:01;;;;;;;6.90;4.25;;;7.40;99.90;;;;;;4935452;29;20491;-60
2023/04/04 10:28:28;;;;;;;11.45;4.30;;;7.40;99.90;;;;;;4934330;29;20046;-61
2023/04/04 10:30:55;;;;;;;8.82;4.40;;;7.50;99.90;;;;;;4935475;29;20076;-62
2023/04/04 10:33:32;;;;;;;8.23;4.20;;;7.50;99.90;;;;;;4935600;29;20063;-61
2023/04/04 10:35:59;;;;;;;9.70;3.75;;;7.50;99.90;;;;;;4934570;29;20531;-61
2023/04/04 10:38:26;;;;;;;11.48;4.22;;;7.60;99.90;;;;;;4935485;29;20048;-61
2023/04/04 10:40:52;;;;;;;9.55;4.18;;;7.70;99.90;;;;;;4918077;29;20446;-60
2023/04/04 10:43:20;;;;;;;14.25;4.68;;;7.70;99.90;;;;;;4935313;29;20486;-61
2023/04/04 10:45:46;;;;;;;9.30;4.60;;;7.80;99.90;;;;;;4918448;29;20071;-62
2023/04/04 10:48:14;;;;;;;6.35;4.13;;;7.80;99.90;;;;;;4935546;29;20047;-60
2023/04/04 10:50:40;;;;;;;10.73;4.18;;;7.90;99.90;;;;;;4938716;29;20059;-61
2023/04/04 10:53:07;;;;;;;7.78;3.97;;;8.00;99.90;;;;;;4938272;29;20046;-61
2023/04/04 10:55:35;;;;;;;7.85;4.28;;;8.10;99.90;;;;;;4938812;29;20040;-62
2023/04/04 10:58:03;;;;;;;12.95;4.40;;;8.10;99.90;;;;;;4938359;29;20355;-60
2023/04/04 11:00:29;;;;;;;11.70;3.95;;;8.20;99.90;;;;;;4938505;29;20059;-61
2023/04/04 11:02:56;;;;;;;13.77;4.60;;;8.20;99.90;;;;;;4938001;29;20035;-61
2023/04/04 11:05:23;;;;;;;8.57;4.05;;;8.30;99.90;;;;;;4939027;29;20040;-60
2023/04/04 11:07:50;;;;;;;10.80;5.05;;;8.50;99.90;;;;;;4920975;29;20048;-60
2023/04/04 11:10:34;;;;;;;11.73;4.35;;;8.50;99.90;;;;;;4921567;29;20048;-61
2023/04/04 11:13:06;;;;;;;11.15;3.92;;;8.50;99.90;;;;;;4938818;29;20462;-61
2023/04/04 11:15:39;;;;;;;7.10;3.72;;;8.50;99.90;;;;;;4932883;29;20047;-61
2023/04/04 11:18:06;;;;;;;9.95;3.90;;;8.50;99.90;;;;;;4938335;29;20043;-62
2023/04/04 11:20:47;;;;;;;9.02;4.40;;;8.60;99.90;;;;;;4920329;29;20056;-62
2023/04/04 11:23:14;;;;;;;9.07;4.25;;;8.70;99.10;;;;;;4938362;29;20044;-61
2023/04/04 11:25:41;;;;;;;9.05;3.70;;;8.70;99.40;;;;;;4938335;29;20424;-62
2023/04/04 11:28:08;;;;;;;10.10;4.07;;;8.70;99.10;;;;;;4937539;29;20495;-62
2023/04/04 11:30:34;;;;;;;7.75;4.30;;;8.70;99.20;;;;;;4938439;29;20046;-62
2023/04/04 11:33:01;;;;;;;8.57;4.43;;;8.80;99.30;;;;;;4937911;29;20036;-62
2023/04/04 11:35:33;;;;;;;10.10;3.97;;;8.90;99.70;;;;;;4937978;29;20040;-62
2023/04/04 11:38:00;;;;;;;10.65;4.38;;;9.00;99.30;;;;;;4938010;29;20491;-61
2023/04/04 11:40:28;;;;;;;6.32;3.17;;;9.00;99.00;;;;;;4921199;29;20047;-63
2023/04/04 11:43:01;;;;;;;8.73;4.10;;;9.00;98.50;;;;;;4937417;29;20043;-61
2023/04/04 11:45:27;;;;;;;9.15;3.67;;;9.00;98.70;;;;;;4937810;29;20455;-61
2023/04/04 11:47:54;;;;;;;8.18;3.78;;;9.10;98.20;;;;;;4921191;29;20068;-63
2023/04/04 11:50:22;;;;;;;11.45;3.72;;;9.20;98.40;;;;;;4937612;29;20048;-61
2023/04/04 11:52:48;;;;;;;9.55;4.10;;;9.40;97.80;;;;;;4937785;29;20078;-63
2023/04/04 11:55:18;;;;;;;9.75;4.10;;;9.50;97.90;;;;;;4937852;29;20062;-63
2023/04/04 11:57:45;;;;;;;6.93;3.50;;;9.50;97.50;;;;;;4937047;29;20039;-63
2023/04/04 12:00:14;;;;;;;10.80;3.65;;;9.50;96.30;;;;;;4936124;29;20051;-61
2023/04/04 12:02:42;;;;;;;8.20;3.70;;;9.50;96.40;;;;;;4936375;29;20044;-61
2023/04/04 12:05:09;;;;;;;8.27;4.20;;;9.50;95.60;;;;;;4936803;29;20099;-62
2023/04/04 12:07:36;;;;;;;8.35;3.60;;;9.40;96.30;;;;;;4937231;29;20040;-61
2023/04/04 12:10:02;;;;;;;6.68;3.45;;;9.40;96.50;;;;;;4936365;29;20048;-62
2023/04/04 12:12:29;;;;;;;9.75;3.65;;;9.50;96.50;;;;;;4937103;29;20043;-62
2023/04/04 12:14:56;;;;;;;8.70;3.72;;;9.50;96.40;;;;;;4936221;29;20095;-62
2023/04/04 12:17:43;;;;;;;8.57;3.97;;;9.50;96.50;;;;;;4936914;29;20043;-63
2023/04/04 12:20:10;;;;;;;8.40;3.85;;;9.60;96.00;;;;;;4936670;29;20538;-61
2023/04/04 12:22:37;;;;;;;10.90;3.70;;;9.60;96.00;;;;;;4936872;29;20047;-61
2023/04/04 12:25:05;;;;;;;36.22;6.25;;;9.60;95.70;;;;;;4936850;29;20044;-62
2023/04/04 12:27:31;;;;;;;8.25;4.03;;;9.70;96.50;;;;;;4935903;29;20367;-62
2023/04/04 12:29:59;;;;;;;9.45;3.85;;;9.70;95.10;;;;;;4936654;29;20040;-62
2023/04/04 12:32:26;;;;;;;14.15;5.75;;;9.70;95.30;;;;;;4919862;29;20055;-63
2023/04/04 12:34:53;;;;;;;7.57;3.90;;;9.70;95.20;;;;;;4936509;29;20047;-62
2023/04/04 12:37:19;;;;;;;8.25;3.85;;;9.70;94.70;;;;;;4936788;29;20082;-61
2023/04/04 12:39:49;;;;;;;9.85;4.20;;;9.70;96.20;;;;;;4936381;29;20565;-61
2023/04/04 12:42:17;;;;;;;8.23;4.25;;;9.80;96.30;;;;;;4935271;29;20051;-62
2023/04/04 12:44:43;;;;;;;11.07;4.20;;;9.90;96.40;;;;;;4936542;29;20039;-62
2023/04/04 12:47:13;;;;;;;7.20;3.83;;;9.90;96.50;;;;;;4936538;29;20494;-61
2023/04/04 12:49:39;;;;;;;8.82;4.28;;;10.10;96.10;;;;;;4936570;29;20075;-60
2023/04/04 12:52:07;;;;;;;6.22;3.85;;;10.20;95.00;;;;;;4936231;29;20047;-61
2023/04/04 12:54:34;;;;;;;8.50;4.35;;;10.30;95.90;;;;;;4936308;29;20052;-61
2023/04/04 12:57:02;;;;;;;11.98;4.57;;;10.30;95.20;;;;;;4936309;29;20466;-61
2023/04/04 12:59:29;;;;;;;9.57;4.78;;;10.30;94.90;;;;;;4934068;29;20094;-61
2023/04/04 13:01:56;;;;;;;9.07;4.20;;;10.30;95.20;;;;;;4936155;29;20513;-63
2023/04/04 13:04:23;;;;;;;9.13;4.65;;;10.30;93.90;;;;;;4936244;29;20379;-62
2023/04/04 13:06:50;;;;;;;14.70;4.05;;;10.30;93.60;;;;;;4935857;29;20036;-62
2023/04/04 13:09:17;;;;;;;7.28;3.92;;;10.30;94.00;;;;;;4936031;29;20067;-62
2023/04/04 13:11:44;;;;;;;11.32;4.35;;;10.30;94.60;;;;;;4935547;29;20395;-63
2023/04/04 13:14:11;;;;;;;9.10;4.65;;;10.40;95.00;;;;;;4935991;29;20052;-62
2023/04/04 13:16:40;;;;;;;11.15;4.32;;;10.50;94.80;;;;;;4935791;29;20047;-62
2023/04/04 13:19:07;;;;;;;8.18;3.88;;;10.60;94.80;;;;;;4903395;29;20051;-62
2023/04/04 13:21:34;;;;;;;11.73;4.03;;;10.70;94.00;;;;;;4935807;29;20068;-61
2023/04/04 13:24:02;;;;;;;8.35;4.07;;;10.70;93.80;;;;;;4935666;29;20043;-60
2023/04/04 13:26:29;;;;;;;8.50;4.20;;;10.80;93.50;;;;;;4932497;29;20094;-62
2023/04/04 13:28:56;;;;;;;7.50;4.18;;;10.70;93.60;;;;;;4935746;29;20483;-62
2023/04/04 13:31:22;;;;;;;6.45;4.05;;;10.70;94.10;;;;;;4935417;29;20047;-61
2023/04/04 13:33:49;;;;;;;9.70;4.05;;;10.70;93.30;;;;;;4935265;29;20054;-63
2023/04/04 13:36:16;;;;;;;8.52;4.07;;;10.70;94.00;;;;;;4935252;29;20043;-61
2023/04/04 13:38:43;;;;;;;7.55;4.28;;;10.70;92.90;;;;;;4935155;29;20398;-60
2023/04/04 13:41:10;;;;;;;8.55;4.05;;;10.90;93.10;;;;;;4935360;29;20031;-63
2023/04/04 13:43:37;;;;;;;7.43;4.18;;;10.90;92.50;;;;;;4935359;29;20042;-61
2023/04/04 13:46:04;;;;;;;15.40;4.43;;;10.90;92.20;;;;;;4935528;29;20483;-60
2023/04/04 13:48:30;;;;;;;7.25;4.30;;;10.90;91.90;;;;;;4935494;29;20099;-61
2023/04/04 13:50:57;;;;;;;9.80;4.22;;;10.90;91.40;;;;;;4918317;29;20402;-60
2023/04/04 13:53:24;;;;;;;8.65;4.30;;;10.90;91.50;;;;;;4918631;29;20040;-61
2023/04/04 13:55:50;;;;;;;10.35;3.97;;;10.80;91.10;;;;;;4935612;29;20048;-62
2023/04/04 13:58:20;;;;;;;8.90;3.88;;;10.80;92.30;;;;;;4935132;29;20550;-61
2023/04/04 14:00:47;;;;;;;9.38;5.15;;;10.90;92.40;;;;;;4935317;29;20066;-62
2023/04/04 14:03:15;;;;;;;8.27;4.22;;;11.00;92.40;;;;;;4935480;29;20044;-60
2023/04/04 14:05:42;;;;;;;11.20;4.38;;;11.10;92.30;;;;;;4935266;29;20478;-61
2023/04/04 14:08:09;;;;;;;7.78;4.07;;;11.20;92.10;;;;;;4934920;29;20445;-61
2023/04/04 14:10:35;;;;;;;11.90;4.05;;;11.20;92.10;;;;;;4935120;29;20542;-61
2023/04/04 14:13:02;;;;;;;6.75;4.03;;;11.20;92.20;;;;;;4935439;29;20407;-61
2023/04/04 14:15:29;;;;;;;9.68;4.53;;;11.20;92.10;;;;;;4935467;29;20079;-61
2023/04/04 14:17:56;;;;;;;8.82;4.30;;;11.20;92.00;;;;;;4935047;29;20052;-61
2023/04/04 14:20:23;;;;;;;9.85;4.43;;;11.30;91.20;;;;;;4917948;29;20051;-61
2023/04/04 14:22:49;;;;;;;12.43;5.40;;;11.30;93.10;;;;;;4935767;29;20107;-62
2023/04/04 14:25:16;;;;;;;10.18;5.05;;;11.20;95.40;;;;;;4938912;29;20047;-62
2023/04/04 14:27:43;;;;;;;8.32;4.72;;;11.20;95.40;;;;;;4938394;29;20044;-61
2023/04/04 14:30:10;;;;;;;9.23;4.57;;;11.30;95.30;;;;;;4937568;29;20051;-62
2023/04/04 14:32:36;;;;;;;11.20;4.75;;;11.30;95.30;;;;;;4938996;29;20431;-62
2023/04/04 14:35:03;;;;;;;11.60;4.95;;;11.30;96.00;;;;;;4938830;29;20486;-61
2023/04/04 14:37:30;;;;;;;10.10;5.03;;;11.40;96.00;;;;;;4938521;29;20050;-61
2023/04/04 14:39:57;;;;;;;10.50;5.20;;;11.40;96.10;;;;;;4938532;29;20059;-61
2023/04/04 14:42:24;;;;;;;10.68;5.15;;;11.40;96.10;;;;;;4938822;29;20043;-62
2023/04/04 14:44:50;;;;;;;10.82;5.28;;;11.40;96.00;;;;;;4938477;29;20478;-62
2023/04/04 14:47:17;;;;;;;7.82;5.00;;;11.40;96.40;;;;;;4921946;29;20095;-62
2023/04/04 14:49:44;;;;;;;14.48;5.40;;;11.30;95.90;;;;;;4921233;29;20047;-62
2023/04/04 14:52:11;;;;;;;9.40;4.82;;;11.40;96.10;;;;;;4938521;29;20459;-61
2023/04/04 14:54:37;;;;;;;10.90;4.97;;;11.50;96.30;;;;;;4938653;29;20157;-62
2023/04/04 14:57:05;;;;;;;12.05;5.32;;;11.50;96.70;;;;;;4938516;29;20047;-61
2023/04/04 14:59:32;;;;;;;13.40;5.53;;;11.60;96.60;;;;;;4938342;29;20064;-61
2023/04/04 15:01:59;;;;;;;11.23;5.35;;;11.60;96.30;;;;;;4938470;29;20058;-60
2023/04/04 15:04:26;;;;;;;12.68;5.10;;;11.60;96.70;;;;;;4938144;29;20091;-61
2023/04/04 15:06:53;;;;;;;12.60;5.63;;;11.60;96.80;;;;;;4938430;29;20035;-61
2023/04/04 15:09:20;;;;;;;10.65;5.10;;;11.70;96.70;;;;;;4937899;29;20043;-60
2023/04/04 15:11:48;;;;;;;15.40;5.32;;;11.70;96.00;;;;;;4938501;29;20075;-60
2023/04/04 15:14:40;;;;;;;7.75;4.72;;;11.70;96.30;;;;;;4937258;29;20059;-61
2023/04/04 15:57:11;;;;;;;13.68;5.38;;;11.70;96.20;;;;;;4911866;29;20039;-61
2023/04/04 15:59:38;;;;;;;9.63;5.18;;;11.60;95.90;;;;;;4909044;29;20048;-61
2023/04/04 16:02:22;;;;;;;10.02;5.03;;;11.60;96.30;;;;;;4911743;29;20452;-60
2023/04/04 16:04:51;;;;;;;10.57;4.80;;;11.60;96.00;;;;;;4910398;29;20123;-62
2023/04/04 16:10:47;;;;;;;11.07;4.90;;;11.70;96.40;;;;;;4912621;29;20051;-63
2023/04/04 16:13:14;;;;;;;10.32;4.70;;;11.70;96.20;;;;;;4899974;29;20507;-62
2023/04/04 16:15:58;;;;;;;13.23;4.82;;;11.70;96.40;;;;;;4903588;29;20384;-62
2023/04/04 16:18:48;;;;;;;6.82;4.53;;;11.70;96.20;;;;;;4888891;29;20067;-61
2023/04/04 16:21:33;;;;;;;9.68;4.80;;;11.70;96.20;;;;;;4917562;29;20036;-63
2023/04/04 16:24:17;;;;;;;11.50;5.10;;;11.70;96.20;;;;;;4901206;29;20035;-63
2023/04/04 16:27:08;;;;;;;9.10;5.03;;;11.70;95.90;;;;;;4917995;29;20048;-63
2023/04/04 16:29:59;;;;;;;9.52;4.70;;;11.70;96.10;;;;;;4916542;29;20032;-62
2023/04/04 16:32:50;;;;;;;8.40;4.53;;;11.70;96.20;;;;;;4917832;29;20028;-62
2023/04/04 16:35:17;;;;;;;11.50;5.75;;;11.70;96.40;;;;;;4917679;29;20104;-62
2023/04/04 16:37:44;;;;;;;11.13;5.05;;;11.70;96.20;;;;;;4917533;29;20048;-62
2023/04/04 16:40:11;;;;;;;6.75;4.50;;;11.80;96.20;;;;;;4917526;29;20063;-62
2023/04/04 16:42:41;;;;;;;9.63;4.88;;;12.20;96.10;;;;;;4916850;29;20510;-63
2023/04/04 16:45:08;;;;;;;12.40;4.45;;;12.70;95.20;;;;;;4917007;29;20115;-63
2023/04/04 16:47:35;;;;;;;10.65;4.47;;;13.20;95.30;;;;;;4916414;29;20108;-64
2023/04/04 16:50:03;;;;;;;8.15;4.20;;;13.60;94.60;;;;;;4916946;29;20043;-63
2023/04/04 16:56:55;;;;;;;11.00;4.75;;;14.00;94.00;;;;;;4934069;29;20522;-62
2023/04/04 17:03:27;;;;;;;8.80;4.10;;;14.20;93.10;;;;;;4917711;29;20032;-62
2023/04/04 17:05:58;;;;;;;11.73;4.13;;;14.30;93.30;;;;;;4916856;29;20070;-63
2023/04/04 17:08:26;;;;;;;8.35;4.32;;;14.30;92.70;;;;;;4917887;29;20040;-63
2023/04/04 17:10:53;;;;;;;8.30;4.50;;;14.30;93.10;;;;;;4916920;29;20048;-63
2023/04/04 17:13:21;;;;;;;10.40;4.75;;;14.40;93.10;;;;;;4917778;29;20048;-63
2023/04/04 17:15:48;;;;;;;7.47;4.70;;;14.50;92.80;;;;;;4915987;29;20566;-62
2023/04/04 17:18:16;;;;;;;11.35;4.93;;;14.70;93.00;;;;;;4916572;29;20558;-62
2023/04/04 17:20:47;;;;;;;10.10;4.57;;;14.80;92.40;;;;;;4899949;29;20099;-64
2023/04/04 17:32:53;;;;;;;;;;;14.50;92.20;;;;;;4913288;29;20496;-62
2023/04/04 17:35:20;;;;;;;12.43;5.05;;;14.50;91.80;;;;;;4915865;29;19923;-64
2023/04/04 17:37:47;;;;;;;13.85;4.97;;;14.40;92.30;;;;;;4900629;29;20400;-64
2023/04/04 17:40:14;;;;;;;7.90;4.35;;;14.20;92.30;;;;;;4917359;29;20075;-62
2023/04/04 17:42:41;;;;;;;7.57;4.20;;;14.00;92.30;;;;;;4915972;29;20099;-62
2023/04/04 17:45:07;;;;;;;14.13;5.18;;;13.90;92.60;;;;;;4917007;29;20123;-62
2023/04/04 17:47:34;;;;;;;11.57;4.90;;;13.70;93.10;;;;;;4916388;29;20071;-63
2023/04/04 17:50:01;;;;;;;8.65;4.63;;;13.50;93.00;;;;;;4917100;29;20167;-63
2023/04/04 17:52:28;;;;;;;9.90;5.68;;;13.20;93.20;;;;;;4900264;29;20040;-62
2023/04/04 17:54:55;;;;;;;8.73;4.25;;;12.90;93.50;;;;;;4916264;29;20171;-62
2023/04/04 17:57:22;;;;;;;9.15;4.90;;;12.60;93.90;;;;;;4915878;29;20052;-61
2023/04/04 17:59:48;;;;;;;10.63;4.40;;;12.30;94.20;;;;;;4899206;29;20060;-62
2023/04/04 18:02:15;;;;;;;7.45;3.97;;;12.00;94.50;;;;;;4922953;29;20063;-61
2023/04/04 18:04:42;;;;;;;10.63;4.45;;;11.70;95.00;;;;;;4935980;29;20506;-63
2023/04/04 18:07:09;;;;;;;11.60;4.55;;;11.50;95.40;;;;;;4935174;29;20044;-62
2023/04/04 18:09:35;;;;;;;10.25;4.90;;;11.30;95.60;;;;;;4935831;29;20455;-63
2023/04/04 18:12:02;;;;;;;11.65;4.32;;;11.20;96.10;;;;;;4934893;29;20551;-62
2023/04/04 18:14:29;;;;;;;10.18;5.00;;;11.10;96.20;;;;;;4930214;29;20040;-62
2023/04/04 18:16:56;;;;;;;10.70;4.18;;;10.90;96.50;;;;;;4935019;29;20040;-62
2023/04/04 18:19:23;;;;;;;10.30;4.53;;;10.80;96.70;;;;;;4935597;29;20050;-61
2023/04/04 18:21:50;;;;;;;8.65;4.22;;;10.60;97.00;;;;;;4935147;29;20047;-62
2023/04/04 18:24:17;;;;;;;9.82;4.88;;;10.50;97.20;;;;;;4935766;29;20074;-61
2023/04/04 18:26:43;;;;;;;11.20;4.53;;;10.40;97.60;;;;;;4934753;29;20107;-63
2023/04/04 18:29:10;;;;;;;10.15;4.32;;;10.30;97.70;;;;;;4935851;29;20059;-63
2023/04/04 18:31:37;;;;;;;10.88;4.75;;;10.10;97.70;;;;;;4918160;29;20549;-60
2023/04/04 18:34:04;;;;;;;11.15;4.90;;;10.00;98.00;;;;;;4935584;29;20076;-60
2023/04/04 18:36:31;;;;;;;14.35;5.75;;;9.80;98.20;;;;;;4934859;29;20047;-62
2023/04/04 18:38:59;;;;;;;10.20;4.35;;;9.70;98.30;;;;;;4935245;29;20410;-62
2023/04/04 18:41:26;;;;;;;10.88;5.03;;;9.60;98.40;;;;;;4935544;29;20055;-62
2023/04/04 18:43:53;;;;;;;10.18;4.78;;;9.50;98.70;;;;;;4934989;29;20051;-62
2023/04/04 18:46:20;;;;;;;8.50;4.40;;;9.40;98.90;;;;;;4935705;29;20427;-61
2023/04/04 18:48:47;;;;;;;14.90;6.35;;;9.30;98.90;;;;;;4934970;29;20095;-62
2023/04/04 18:51:14;;;;;;;10.45;5.38;;;9.20;99.10;;;;;;4935221;29;20058;-60
2023/04/04 18:53:41;;;;;;;10.13;5.53;;;9.10;99.10;;;;;;4935449;29;20044;-60
2023/04/04 18:56:08;;;;;;;13.90;5.65;;;9.10;99.30;;;;;;4934808;29;20055;-59
2023/04/04 18:58:35;;;;;;;13.40;7.82;;;9.00;99.40;;;;;;4935487;29;20063;-60
2023/04/04 19:01:01;;;;;;;16.25;6.07;;;8.90;99.50;;;;;;4934401;29;20067;-60
2023/04/04 19:03:28;;;;;;;14.57;7.47;;;8.90;99.70;;;;;;4918199;29;20055;-61